Flight Track Log - Related Links

Times and Time Zones

All times are in EST time to prevent confusion due to time zone crossing. See the XOJ552 flight status page for this flight to view local times or setup timezone preferences in your user account.

Time Position Orientation Groundspeed Altitude Reporting Facility
EST Latitude Longitude Course Direction KTS MPH feet Rate Location/Type
Wed 12:11:24 PM 40.2086 -111.7231 165° South 148 170 5,300  Level Salt Lake Center
Wed 12:11:42 PM 40.1922 -111.7172 165° South 186 214 6,300 4,027 Climbing Salt Lake Center
Wed 12:12:37 PM 40.1808 -111.7775 256° West 222 255 10,200 3,682 Climbing Salt Lake Center
Wed 12:13:10 PM 40.1897 -111.8081 291° West 234 269 11,700 1,851 Climbing Salt Lake Center
Wed 12:14:11 PM 40.2239 -111.8989 296° West 290 334 13,100 683 Climbing Salt Lake Center
Wed 12:15:13 PM 40.1625 -111.9703 222° Southwest 345 397 13,100 435 Level Salt Lake Center
Wed 12:16:15 PM 40.0683 -111.9342 164° South 352 405 14,000 488 Climbing Salt Lake Center
Wed 12:17:16 PM 39.9506 -111.8908 164° South 365 420 14,100 1,366 Climbing Salt Lake Center
Wed 12:18:18 PM 39.8522 -111.8572 165° South 367 422 16,800 2,855 Climbing Salt Lake Center
Wed 12:19:20 PM 39.7508 -111.8206 164° South 378 435 20,000 2,049 Climbing Salt Lake Center
Wed 12:20:21 PM 39.6881 -111.6906 122° Southeast 447 514 21,000 780 Climbing Salt Lake Center
Wed 12:21:23 PM 39.6419 -111.5408 112° Southeast 451 519 21,600 1,065 Climbing Salt Lake Center
Wed 12:22:25 PM 39.5925 -111.3906 113° Southeast 453 521 23,200 1,707 Climbing Salt Lake Center
Wed 12:23:26 PM 39.5439 -111.2342 112° Southeast 453 521 25,100 2,195 Climbing Salt Lake Center
Wed 12:24:28 PM 39.4894 -111.0619 112° Southeast 460 529 27,700 2,081 Climbing Salt Lake Center
Wed 12:25:30 PM 39.4397 -110.9114 113° Southeast 472 543 29,400 1,707 Climbing Salt Lake Center
Wed 12:26:31 PM 39.3819 -110.7303 112° Southeast 485 558 31,200 1,610 Climbing Salt Lake Center
Wed 12:27:33 PM 39.3292 -110.5728 113° Southeast 495 570 32,700 1,548 Climbing Salt Lake Center
Wed 12:28:35 PM 39.2678 -110.3889 113° Southeast 500 575 34,400 1,463 Climbing Salt Lake Center
Wed 12:29:36 PM 39.2153 -110.2297 113° Southeast 504 580 35,700 1,268 Climbing Salt Lake Center
Wed 12:30:38 PM 39.1533 -110.0444 113° Southeast 504 580 37,000 1,161 Climbing Salt Lake Center
Wed 12:31:40 PM 39.0986 -109.8842 114° Southeast 510 587 38,100 1,134 Climbing Salt Lake Center
Wed 12:32:45 PM 39.0361 -109.6983 113° Southeast 505 581 39,400 992 Climbing Denver Center
Wed 12:33:47 PM 38.9808 -109.5397 114° Southeast 507 583 40,200 774 Climbing Denver Center
Wed 12:34:49 PM 38.9183 -109.3564 114° Southeast 505 581 41,000 387 Climbing Denver Center
Wed 12:35:51 PM 38.8642 -109.1981 114° Southeast 508 585 41,000  Level Denver Center
Wed 12:36:53 PM 38.7981 -109.0058 114° Southeast 527 606 41,000  Level Denver Center
Wed 12:37:55 PM 38.7408 -108.8397 114° Southeast 534 615 41,000  Level Denver Center
Wed 12:38:57 PM 38.6733 -108.6464 114° Southeast 535 616 41,000  Level Denver Center
Wed 12:39:59 PM 38.6150 -108.4825 114° Southeast 532 612 41,000  Level Denver Center
Wed 12:41:01 PM 38.5469 -108.2906 114° Southeast 532 612 41,000  Level Denver Center
Wed 12:42:03 PM 38.4883 -108.1258 114° Southeast 533 613 41,000  Level Denver Center
Wed 12:43:05 PM 38.4186 -107.9356 115° Southeast 532 612 41,000  Level Denver Center
Wed 12:44:08 PM 38.3600 -107.7708 114° Southeast 533 613 41,000  Level Denver Center
Wed 12:45:10 PM 38.2900 -107.5819 115° Southeast 531 611 41,000  Level Denver Center
Wed 12:46:12 PM 38.2311 -107.4189 115° Southeast 529 609 41,000  Level Denver Center
Wed 12:47:14 PM 38.1606 -107.2303 115° Southeast 531 611 41,000  Level Denver Center
Wed 12:48:16 PM 38.1025 -107.0725 115° Southeast 526 605 41,000  Level Denver Center
Wed 12:49:18 PM 38.0331 -106.8794 114° Southeast 530 610 41,000  Level Denver Center
Wed 12:50:20 PM 37.9733 -106.7200 115° Southeast 525 604 41,000  Level Denver Center
Wed 12:51:22 PM 37.9136 -106.5611 115° Southeast 524 603 41,000  Level Denver Center
Wed 12:52:24 PM 37.8450 -106.3819 116° Southeast 522 601 41,000  Level Denver Center
Wed 12:53:26 PM 37.7814 -106.2194 116° Southeast 521 600 41,000  Level Denver Center
Wed 12:54:28 PM 37.7128 -106.0406 116° Southeast 522 601 41,000  Level Denver Center
Wed 12:56:15 PM 37.6028 -105.7492 115° Southeast 508 585 41,000  Level Albuquerque Center
Wed 12:57:17 PM 37.5317 -105.5661 116° Southeast 518 596 41,000  Level Albuquerque Center
Wed 12:58:19 PM 37.4697 -105.4078 116° Southeast 524 603 41,000  Level Albuquerque Center
Wed 12:59:21 PM 37.3975 -105.2244 116° Southeast 525 604 41,000  Level Albuquerque Center
Wed 01:00:23 PM 37.3361 -105.0672 116° Southeast 523 602 41,000  Level Albuquerque Center
Wed 01:01:43 PM 37.2522 -104.8592 117° Southeast 526 605 41,000  Level Denver Center
Wed 01:02:45 PM 37.1800 -104.6761 116° Southeast 526 605 41,000  Level Denver Center
Wed 01:03:47 PM 37.1172 -104.5214 117° Southeast 524 603 41,000  Level Denver Center
Wed 01:04:49 PM 37.0433 -104.3372 117° Southeast 530 610 41,000  Level Denver Center
Wed 01:05:35 PM 36.9900 -104.2067 117° Southeast 529 609 41,000  Level Albuquerque Center
Wed 01:06:37 PM 36.9261 -104.0494 117° Southeast 531 611 41,000  Level Albuquerque Center
Wed 01:07:39 PM 36.8511 -103.8658 117° Southeast 532 612 41,000  Level Albuquerque Center
Wed 01:08:41 PM 36.7856 -103.7092 118° Southeast 533 613 41,000  Level Albuquerque Center
Wed 01:09:43 PM 36.7100 -103.5253 117° Southeast 534 615 41,000  Level Albuquerque Center
Wed 01:10:45 PM 36.6403 -103.3603 118° Southeast 533 613 41,000  Level Albuquerque Center
Wed 01:11:47 PM 36.5706 -103.1942 118° Southeast 534 615 41,000  Level Albuquerque Center
Wed 01:12:49 PM 36.5031 -103.0319 117° Southeast 529 609 41,000  Level Albuquerque Center
Wed 01:13:51 PM 36.4403 -102.8817 117° Southeast 531 611 41,000  Level Albuquerque Center
Wed 01:14:53 PM 36.3575 -102.6892 118° Southeast 529 609 41,000  Level Albuquerque Center
Wed 01:15:55 PM 36.2883 -102.5286 118° Southeast 528 608 41,000  Level Albuquerque Center
Wed 01:16:57 PM 36.2194 -102.3689 118° Southeast 527 606 41,000  Level Albuquerque Center
Wed 01:17:59 PM 36.1508 -102.2075 118° Southeast 529 609 41,000  Level Albuquerque Center
Wed 01:19:01 PM 36.0806 -102.0464 118° Southeast 530 610 41,000  Level Albuquerque Center
Wed 01:20:03 PM 36.0108 -101.8856 118° Southeast 531 611 41,000  Level Albuquerque Center
Wed 01:21:05 PM 35.9258 -101.6897 118° Southeast 536 617 41,000  Level Albuquerque Center
Wed 01:22:07 PM 35.8547 -101.5278 118° Southeast 535 616 41,000  Level Albuquerque Center
Wed 01:23:09 PM 35.7822 -101.3650 119° Southeast 537 618 41,000  Level Albuquerque Center
Wed 01:24:11 PM 35.7100 -101.2017 119° Southeast 539 620 41,000  Level Albuquerque Center
Wed 01:25:13 PM 35.6369 -101.0386 119° Southeast 541 623 41,000  Level Albuquerque Center
Wed 01:26:15 PM 35.5653 -100.8769 119° Southeast 538 619 41,000  Level Albuquerque Center
Wed 01:27:17 PM 35.4931 -100.7153 119° Southeast 539 620 41,000  Level Albuquerque Center
Wed 01:28:19 PM 35.4103 -100.5347 119° Southeast 541 623 41,000  Level Albuquerque Center
Wed 01:29:21 PM 35.3361 -100.3731 119° Southeast 543 625 41,000  Level Albuquerque Center
Wed 01:30:23 PM 35.2631 -100.2142 119° Southeast 540 621 41,000  Level Albuquerque Center
Wed 01:31:25 PM 35.1883 -100.0522 119° Southeast 544 626 41,000  Level Albuquerque Center
Wed 01:32:27 PM 35.1008 -99.8597 119° Southeast 542 624 41,000  Level Albuquerque Center
Wed 01:33:29 PM 35.0256 -99.7006 120° Southeast 543 625 41,000  Level Albuquerque Center
Wed 01:34:53 PM 34.9217 -99.4786 120° Southeast 542 624 41,000  Level Fort Worth Center
Wed 01:35:55 PM 34.8475 -99.3203 120° Southeast 539 620 41,000  Level Fort Worth Center
Wed 01:36:57 PM 34.7728 -99.1628 120° Southeast 539 620 41,000  Level Fort Worth Center
Wed 01:37:59 PM 34.6978 -99.0058 120° Southeast 539 620 41,000  Level Fort Worth Center
Wed 01:39:01 PM 34.6233 -98.8483 120° Southeast 539 620 41,000  Level Fort Worth Center
Wed 01:40:03 PM 34.5325 -98.6597 120° Southeast 538 619 41,000  Level Fort Worth Center
Wed 01:41:05 PM 34.4581 -98.5022 120° Southeast 539 620 41,000  Level Fort Worth Center
Wed 01:42:07 PM 34.3808 -98.3447 121° Southeast 534 615 41,000  Level Fort Worth Center
Wed 01:43:09 PM 34.3006 -98.1819 121° Southeast 531 611 41,000  Level Fort Worth Center
Wed 01:44:11 PM 34.2308 -98.0386 120° Southeast 533 613 41,000  Level Fort Worth Center
Wed 01:45:14 PM 34.1561 -97.8858 121° Southeast 532 612 41,000  Level Fort Worth Center
Wed 01:46:16 PM 34.0753 -97.7164 120° Southeast 538 619 41,000  Level Fort Worth Center
Wed 01:47:18 PM 33.9986 -97.5619 121° Southeast 538 619 41,000  Level Fort Worth Center
Wed 01:48:20 PM 33.9225 -97.4064 120° Southeast 537 618 41,000  Level Fort Worth Center
Wed 01:49:22 PM 33.8308 -97.2231 121° Southeast 533 613 41,000  Level Fort Worth Center
Wed 01:50:24 PM 33.7539 -97.0692 121° Southeast 535 616 41,000  Level Fort Worth Center
Wed 01:51:26 PM 33.6769 -96.9158 121° Southeast 534 615 41,000  Level Fort Worth Center
Wed 01:52:28 PM 33.5992 -96.7631 121° Southeast 533 613 41,000  Level Fort Worth Center
Wed 01:53:30 PM 33.5219 -96.6108 121° Southeast 533 613 41,000  Level Fort Worth Center
Wed 01:54:33 PM 33.4447 -96.4600 122° Southeast 530 610 41,000  Level Fort Worth Center
Wed 01:55:35 PM 33.3675 -96.3094 122° Southeast 530 610 41,000  Level Fort Worth Center
Wed 01:56:37 PM 33.2761 -96.1297 121° Southeast 524 603 41,000  Level Fort Worth Center
Wed 01:57:39 PM 33.1986 -95.9800 122° Southeast 527 606 41,000  Level Fort Worth Center
Wed 01:58:41 PM 33.1206 -95.8306 122° Southeast 529 609 41,000  Level Fort Worth Center
Wed 01:59:43 PM 33.0439 -95.6817 122° Southeast 526 605 41,000  Level Fort Worth Center
Wed 02:00:45 PM 32.9667 -95.5342 122° Southeast 526 605 41,000  Level Fort Worth Center
Wed 02:01:47 PM 32.8897 -95.3867 122° Southeast 525 604 41,000  Level Fort Worth Center
Wed 02:02:49 PM 32.7964 -95.2100 122° Southeast 526 605 41,000  Level Fort Worth Center
Wed 02:03:52 PM 32.7183 -95.0642 122° Southeast 525 604 41,000  Level Fort Worth Center
Wed 02:04:54 PM 32.6411 -94.9161 122° Southeast 527 606 41,000  Level Fort Worth Center
Wed 02:05:56 PM 32.5625 -94.7692 122° Southeast 526 605 41,000  Level Fort Worth Center
Wed 02:06:58 PM 32.4775 -94.6078 122° Southeast 528 608 41,000  Level Fort Worth Center
Wed 02:08:00 PM 32.4064 -94.4786 123° Southeast 516 594 41,000  Level Fort Worth Center
Wed 02:09:02 PM 32.3128 -94.3053 123° Southeast 518 596 41,000  Level Fort Worth Center
Wed 02:10:04 PM 32.2339 -94.1603 123° Southeast 520 598 41,000  Level Fort Worth Center
Wed 02:11:06 PM 32.1569 -94.0169 122° Southeast 517 595 41,000  Level Fort Worth Center
Wed 02:12:09 PM 32.0789 -93.8736 123° Southeast 516 594 41,000  Level Fort Worth Center
Wed 02:12:48 PM 32.0242 -93.7767 124° Southeast 518 596 41,000  Level Houston Center
Wed 02:13:51 PM 31.9444 -93.6350 124° Southeast 521 600 41,000  Level Houston Center
Wed 02:14:53 PM 31.8664 -93.4908 122° Southeast 523 602 41,000  Level Houston Center
Wed 02:15:55 PM 31.7861 -93.3472 123° Southeast 527 606 41,000  Level Houston Center
Wed 02:16:57 PM 31.6967 -93.1858 123° Southeast 525 604 41,000  Level Houston Center
Wed 02:17:59 PM 31.6164 -93.0425 123° Southeast 524 603 41,000  Level Houston Center
Wed 02:19:01 PM 31.5367 -92.9006 123° Southeast 523 602 41,000  Level Houston Center
Wed 02:20:03 PM 31.4569 -92.7589 123° Southeast 520 598 41,000  Level Houston Center
Wed 02:21:06 PM 31.3617 -92.5892 123° Southeast 521 600 41,000  Level Houston Center
Wed 02:22:08 PM 31.2806 -92.4481 124° Southeast 522 601 41,000  Level Houston Center
Wed 02:23:10 PM 31.2017 -92.3081 123° Southeast 518 596 41,000  Level Houston Center
Wed 02:24:12 PM 31.1219 -92.1686 124° Southeast 515 593 41,000  Level Houston Center
Wed 02:25:14 PM 31.0322 -92.0119 124° Southeast 508 585 41,000  Level Houston Center
Wed 02:26:16 PM 30.9533 -91.8753 124° Southeast 507 583 41,000  Level Houston Center
Wed 02:27:18 PM 30.8747 -91.7394 124° Southeast 507 583 41,000  Level Houston Center
Wed 02:28:20 PM 30.7953 -91.6039 124° Southeast 507 583 41,000  Level Houston Center
Wed 02:29:23 PM 30.7167 -91.4664 124° Southeast 510 587 41,000  Level Houston Center
Wed 02:30:25 PM 30.6275 -91.3156 124° Southeast 511 588 41,000  Level Houston Center
Wed 02:31:27 PM 30.5475 -91.1786 124° Southeast 513 590 41,000  Level Houston Center
Wed 02:32:29 PM 30.4683 -91.0403 124° Southeast 517 595 41,000  Level Houston Center
Wed 02:33:31 PM 30.3886 -90.9044 124° Southeast 512 589 41,000  Level Houston Center
Wed 02:34:33 PM 30.2917 -90.7400 124° Southeast 518 596 41,000  Level Houston Center
Wed 02:35:35 PM 30.2097 -90.6028 125° Southeast 519 597 41,000  Level Houston Center
Wed 02:36:38 PM 30.1264 -90.4661 125° Southeast 523 602 41,000  Level Houston Center
Wed 02:37:40 PM 30.0456 -90.3292 124° Southeast 521 600 41,000 -48 Level Houston Center
Wed 02:38:42 PM 29.9633 -90.1914 125° Southeast 525 604 40,900  Descending Houston Center
Wed 02:39:44 PM 29.8644 -90.0306 125° Southeast 519 597 41,000 48 Climbing Houston Center
Wed 02:40:46 PM 29.7769 -89.9033 128° Southeast 513 590 41,000  Level Houston Center
Wed 02:41:48 PM 29.6864 -89.7822 131° Southeast 506 582 41,000  Level Houston Center
Wed 02:42:50 PM 29.5964 -89.6586 130° Southeast 507 583 41,000  Level Houston Center
Wed 02:43:53 PM 29.4897 -89.5103 130° Southeast 505 581 41,000  Level Houston Center
Wed 02:44:55 PM 29.3992 -89.3894 131° Southeast 502 578 41,000  Level Houston Center
Wed 02:45:57 PM 29.3103 -89.2683 130° Southeast 500 575 41,000  Level Houston Center
Wed 02:46:59 PM 29.2197 -89.1489 131° Southeast 498 573 41,000  Level Houston Center
Wed 02:48:01 PM 29.1314 -89.0308 131° Southeast 493 567 41,000  Level Houston Center
Wed 02:49:03 PM 29.0419 -88.9117 131° Southeast 493 567 41,000  Level Houston Center
Wed 02:50:05 PM 28.9358 -88.7703 131° Southeast 490 564 41,000  Level Houston Center
Wed 02:51:08 PM 28.8656 -88.6333 120° Southeast 504 580 41,000  Level Houston Center
Wed 02:52:10 PM 28.8214 -88.4778 108° East 513 590 41,000  Level Houston Center
Wed 02:53:12 PM 28.7783 -88.3192 107° East 522 601 41,000  Level Houston Center
Wed 02:54:14 PM 28.7342 -88.1619 108° East 523 602 41,000  Level Houston Center
Wed 02:55:16 PM 28.6864 -87.9922 108° East 524 603 41,000  Level Houston Center
Wed 02:56:18 PM 28.6414 -87.8353 108° East 523 602 41,000  Level Houston Center
Wed 02:57:20 PM 28.5883 -87.6481 108° East 521 600 41,000  Level Houston Center
Wed 02:58:23 PM 28.5442 -87.4933 108° East 518 596 41,000  Level Houston Center
Wed 02:59:25 PM 28.4989 -87.3375 108° East 520 598 41,000  Level Houston Center
Wed 03:00:27 PM 28.4544 -87.1811 108° East 521 600 41,000  Level Houston Center
Wed 03:01:11 PM 28.4144 -87.0508 109° East 509 586 41,000  Level Jacksonville Center
Wed 03:02:11 PM 28.3714 -86.8956 107° East 509 586 41,000  Level Jacksonville Center
Wed 03:03:11 PM 28.3239 -86.7406 109° East 509 586 41,000  Level Jacksonville Center
Wed 03:04:11 PM 28.2803 -86.5906 108° East 509 586 41,000  Level Jacksonville Center
Wed 03:05:11 PM 28.2347 -86.4333 108° East 515 593 41,000  Level Jacksonville Center
Wed 03:06:11 PM 28.1869 -86.2764 109° East 515 593 41,000  Level Jacksonville Center
Wed 03:07:11 PM 28.1428 -86.1217 108° East 505 581 41,000  Level Jacksonville Center
Wed 03:08:11 PM 28.0967 -85.9628 108° East 510 587 41,000  Level Jacksonville Center
Wed 03:09:11 PM 28.0539 -85.8275 110° East 511 588 41,000  Level Jacksonville Center
Wed 03:10:11 PM 28.0053 -85.6708 109° East 511 588 41,000  Level Jacksonville Center
Wed 03:11:44 PM 27.9328 -85.4164 108° East 533 613 41,000  Level Miami Center
Wed 03:12:44 PM 27.8919 -85.2633 107° East 525 604 41,000  Level Miami Center
Wed 03:13:44 PM 27.8619 -85.0994 102° East 525 604 41,000  Level Miami Center
Wed 03:14:44 PM 27.8286 -84.9492 104° East 532 612 41,000  Level Miami Center
Wed 03:15:44 PM 27.8022 -84.7903 101° East 532 612 41,000 -350 Level Miami Center
Wed 03:16:44 PM 27.7478 -84.6389 112° Southeast 527 606 40,300 -1,100 Descending Miami Center
Wed 03:17:44 PM 27.6956 -84.4856 111° Southeast 522 601 38,800 -1,500 Descending Miami Center
Wed 03:18:44 PM 27.6428 -84.3392 112° Southeast 516 594 37,300 -1,500 Descending Miami Center
Wed 03:19:44 PM 27.5939 -84.1981 111° Southeast 496 571 35,800 -1,500 Descending Miami Center
Wed 03:20:44 PM 27.5444 -84.0592 112° Southeast 484 557 34,300 -1,400 Descending Miami Center
Wed 03:21:44 PM 27.4931 -83.9178 112° Southeast 484 557 33,000 -700 Descending Miami Center
Wed 03:22:44 PM 27.4417 -83.7769 112° Southeast 484 557 32,900 -550 Descending Miami Center
Wed 03:23:44 PM 27.3939 -83.6383 111° Southeast 484 557 31,900 -950 Descending Miami Center
Wed 03:24:44 PM 27.3403 -83.4928 112° Southeast 490 564 31,000 -450 Descending Miami Center
Wed 03:25:44 PM 27.2925 -83.3478 110° East 490 564 31,000  Level Miami Center
Wed 03:26:44 PM 27.2406 -83.2025 112° Southeast 490 564 31,000 -300 Level Miami Center
Wed 03:27:44 PM 27.1844 -83.0569 113° Southeast 495 570 30,400 -1,000 Descending Miami Center
Wed 03:28:44 PM 27.1342 -82.9144 112° Southeast 495 570 29,000 -1,400 Descending Miami Center
Wed 03:29:44 PM 27.0836 -82.7742 112° Southeast 490 564 27,600 -1,400 Descending Miami Center
Wed 03:30:44 PM 27.0325 -82.6411 113° Southeast 479 551 26,200 -1,300 Descending Miami Center
Wed 03:31:44 PM 26.9914 -82.5203 111° Southeast 474 545 25,000 -1,100 Descending Miami Center
Wed 03:32:44 PM 26.9386 -82.3781 113° Southeast 458 527 24,000 -500 Descending Miami Center
Wed 03:33:44 PM 26.8889 -82.2500 114° Southeast 446 513 24,000  Level Miami Center
Wed 03:34:44 PM 26.8375 -82.1175 113° Southeast 451 519 24,000  Level Miami Center
Wed 03:35:44 PM 26.7900 -81.9872 112° Southeast 451 519 24,000 -800 Level Miami Center
Wed 03:36:44 PM 26.7422 -81.8575 112° Southeast 456 525 22,400 -1,900 Descending Miami Center
Wed 03:37:44 PM 26.7006 -81.7372 111° Southeast 433 498 20,200 -1,700 Descending Miami Center
Wed 03:38:44 PM 26.6897 -81.6250 96° East 387 445 19,000 -600 Descending Miami Center
Wed 03:39:44 PM 26.7161 -81.5122 75° East 347 399 19,000  Level Miami Center
Wed 03:40:44 PM 26.7425 -81.4064 74° East 347 399 19,000 -350 Level Miami Center
Wed 03:41:44 PM 26.7667 -81.3003 76° East 354 407 18,300 -600 Descending Miami Center
Wed 03:42:44 PM 26.7906 -81.2011 75° East 342 394 17,800 -400 Descending Miami Center
Wed 03:43:44 PM 26.8072 -81.1344 74° East 330 380 17,500 -850 Descending Miami Center
Wed 03:44:44 PM 26.8622 -81.0364 58° Northeast 398 458 16,100 -700 Descending Miami Center
Wed 03:45:44 PM 26.9169 -81.0894 319° Northwest 240 276 16,100  Level Miami Center
Wed 03:46:44 PM 26.9081 -81.1800 264° West 221 254 16,100  Level Miami Center
Wed 03:47:44 PM 26.8992 -81.2728 264° West 269 310 16,100 -200 Level Miami Center
Wed 03:48:44 PM 26.8633 -81.3458 241° Southwest 280 322 15,700 -700 Descending Miami Center
Wed 03:49:44 PM 26.7978 -81.3061 152° Southeast 193 222 14,700 -800 Descending Miami Center
Wed 03:50:44 PM 26.8047 -81.2133 85° East 202 232 14,100 -300 Descending Miami Center
Wed 03:51:44 PM 26.8139 -81.1206 84° East 259 298 14,100  Level Miami Center
Wed 03:52:44 PM 26.8308 -81.0422 76° East 295 339 14,100  Level Miami Center
Wed 03:53:44 PM 26.9058 -81.0494 355° North 222 255 14,100  Level Miami Center
Wed 03:54:44 PM 26.9053 -81.1356 270° West 163 188 14,100  Level Miami Center
Wed 03:55:44 PM 26.8964 -81.2236 264° West 243 280 14,100  Level Miami Center
Wed 03:56:44 PM 26.8875 -81.3094 263° West 279 321 14,100  Level Miami Center
Wed 03:57:44 PM 26.8786 -81.3978 264° West 285 328 14,100  Level Miami Center
Wed 03:58:44 PM 26.8672 -81.4928 262° West 290 334 14,100  Level Miami Center
Wed 03:59:44 PM 26.8017 -81.5181 199° South 235 270 14,100  Level Miami Center
Wed 04:00:44 PM 26.7833 -81.4381 104° East 146 168 14,100  Level Miami Center
Wed 04:01:44 PM 26.7922 -81.3500 84° East 235 270 14,100  Level Miami Center
Wed 04:02:44 PM 26.8522 -81.3036 35° Northeast 249 287 14,100  Level Miami Center
Wed 04:03:44 PM 26.8814 -81.3697 296° West 168 193 14,100  Level Miami Center
Wed 04:04:44 PM 26.8275 -81.4306 225° Southwest 179 206 14,100  Level Miami Center
Wed 04:05:44 PM 26.7711 -81.4936 225° Southwest 246 283 14,100  Level Miami Center
Wed 04:06:44 PM 26.7169 -81.5517 224° Southwest 268 308 14,100  Level Miami Center
Wed 04:07:44 PM 26.6586 -81.6122 223° Southwest 281 323 14,100  Level Miami Center
Wed 04:08:44 PM 26.6008 -81.6611 217° Southwest 281 323 14,100  Level Miami Center
Wed 04:09:44 PM 26.5239 -81.6508 173° South 265 305 14,100  Level Miami Center
Wed 04:10:44 PM 26.4367 -81.6358 171° South 271 312 14,100  Level Miami Center
Wed 04:11:44 PM 26.3639 -81.6258 173° South 282 325 14,100  Level Miami Center
Wed 04:12:44 PM 26.2850 -81.6133 172° South 287 330 14,100  Level Miami Center
Wed 04:13:44 PM 26.2372 -81.5444 128° Southeast 266 306 14,100  Level Miami Center
Wed 04:14:44 PM 26.2106 -81.4578 109° East 281 323 14,100 -500 Level Miami Center
Wed 04:15:44 PM 26.1903 -81.3689 104° East 295 339 13,100 -1,100 Descending Miami Center
Wed 04:16:44 PM 26.1722 -81.2803 103° East 295 339 11,900 -1,361 Descending Miami Center
Wed 04:17:43 PM 26.1583 -81.1850 99° East 296 341 10,400 -1,600 Descending Miami Center
Wed 04:17:44 PM 26.1628 -81.1806 42° Northeast 295 339 10,300 -1,500 Descending Miami Center
Wed 04:18:07 PM 26.1572 -81.1503 102° East 294 338 9,800 -1,500 Descending Miami Center
Wed 04:18:44 PM 26.1694 -81.0928 77° East 295 339 8,800 -1,574 Descending Miami Center
Wed 04:19:08 PM 26.1706 -81.0558 88° East 291 335 8,200 -800 Descending Miami Center
Wed 04:19:44 PM 26.1864 -81.0125 68° East 289 333 8,000 -197 Descending Miami Center
Wed 04:20:09 PM 26.1936 -80.9733 78° East 276 318 8,000  Level Miami Center
Wed 04:20:44 PM 26.2053 -80.9319 73° East 284 327 8,000  Level Miami Center
Wed 04:21:10 PM 26.2128 -80.8861 80° East 282 325 8,000  Level Miami Center
Wed 04:21:44 PM 26.2286 -80.8494 64° Northeast 278 320 8,000 -290 Level Miami Center
Wed 04:22:12 PM 26.2361 -80.8033 80° East 280 322 7,700 -1,100 Descending Miami Center
Wed 04:22:44 PM 26.2453 -80.7667 74° East 278 320 6,900 -1,574 Descending Miami Center
Wed 04:23:13 PM 26.2550 -80.7231 76° East 272 313 6,100 -1,600 Descending Miami Center
Wed 04:23:44 PM 26.2664 -80.6769 75° East 278 320 5,300 -1,082 Descending Miami Center
Wed 04:24:14 PM 26.2758 -80.6450 72° East 264 304 5,000 -300 Descending Miami Center
Wed 04:24:44 PM 26.2767 -80.6125 88° East 257 296 5,000  Level Miami Center
Wed 04:25:15 PM 26.2839 -80.5686 80° East 224 258 5,000  Level Miami Center
Wed 04:25:44 PM 26.2700 -80.5428 121° Southeast 210 242 5,000  Level Miami Center
Wed 04:26:16 PM 26.2411 -80.5256 152° Southeast 211 243 5,000 -100 Level Miami Center
Wed 04:26:44 PM 26.2289 -80.5136 139° Southeast 179 206 4,900 -885 Descending Miami Center
Wed 04:27:17 PM 26.1897 -80.4939 156° South 216 249 4,100 -574 Descending Miami Center
Wed 04:28:18 PM 26.1425 -80.4603 147° Southeast 177 204 4,000 -49 Descending Miami Center
Wed 04:29:19 PM 26.0928 -80.4472 167° South 178 205 4,000  Level Miami Center
Wed 04:30:20 PM 26.0472 -80.4342 166° South 178 205 4,000  Level Miami Center
Wed 04:31:21 PM 26.0228 -80.4011 129° Southeast 187 215 4,000 -244 Level Miami Center
Wed 04:32:23 PM 26.0283 -80.3411 84° East 190 219 3,500 -878 Descending Miami Center
Wed 04:33:24 PM 26.0528 -80.2864 64° Northeast 188 216 2,200 -1,082 Descending Miami Center
Wed 04:34:25 PM 26.0747 -80.2383 63° Northeast 157 181 1,300 -787 Descending Miami Center
Wed 04:35:26 PM 26.0736 -80.1992 92° East 124 143 600 -689 Descending Miami Center
Wed 04:37:00 PM 26.0667 -80.1500 180° South  Level FlightAware Approximate
Wed 04:44:00 PM 26.0726 -80.1527 180° South  Level Estimated
Wed 04:45:00 PM 26.0667 -80.1500 180° South  Level FlightAware Approximate
Wed 04:46:00 PM 26.0726 -80.1527 180° South  Level Estimated

Login

Don't have an account? Register now (free) for customized features, flight alerts, and more!